Time;durP1;ratioP1;P1;durP2;ratioP2;P2;SDS_P1;SDS_P2;PMS_P1;PMS_P2;Temp;Humidity;BMP_temperature;BMP_pressure;BME280_temperature;BME280_humidity;BME280_pressure;Samples;Min_cycle;Max_cycle;Signal;HPM_P1;HPM_P2
2021/10/21 00:01:52;;;;;;;8.88;3.35;;;;;;;;;;4877155;29;20060;-85
2021/10/21 00:04:19;;;;;;;8.65;3.17;;;;;;;;;;4867859;29;20184;-85
2021/10/21 00:06:46;;;;;;;9.05;3.25;;;;;;;;;;4874696;29;22277;-82
2021/10/21 00:09:12;;;;;;;;;;;;;;;;;;4872637;28;20037;-85
2021/10/21 00:11:39;;;;;;;12.82;4.20;;;;;;;;;;4887666;29;19958;-85
2021/10/21 00:14:06;;;;;;;10.43;3.53;;;;;;;;;;4878900;29;20032;-86
2021/10/21 00:16:33;;;;;;;12.05;3.40;;;;;;;;;;4867308;29;20057;-83
2021/10/21 00:18:59;;;;;;;9.55;3.63;;;;;;;;;;4874855;29;20029;-83
2021/10/21 00:21:25;;;;;;;;;;;;;;;;;;4872380;29;20139;-83
2021/10/21 00:23:52;;;;;;;8.98;3.85;;;;;;;;;;4878303;29;19956;-84
2021/10/21 00:26:19;;;;;;;10.02;3.75;;;;;;;;;;4877323;29;20112;-84
2021/10/21 00:28:45;;;;;;;8.43;3.35;;;;;;;;;;4879692;29;20418;-83
2021/10/21 00:31:13;;;;;;;9.13;3.30;;;;;;;;;;4885073;28;20043;-84
2021/10/21 00:33:40;;;;;;;10.55;3.40;;;;;;;;;;4870296;29;20033;-84
2021/10/21 00:36:06;;;;;;;9.70;3.40;;;;;;;;;;4870481;29;20140;-85
2021/10/21 00:38:32;;;;;;;;;;;;;;;;;;4870535;29;20081;-85
2021/10/21 00:40:59;;;;;;;10.85;3.72;;;;;;;;;;4886106;29;19919;-83
2021/10/21 00:43:25;;;;;;;11.10;3.67;;;;;;;;;;4874332;29;20032;-84
2021/10/21 00:45:54;;;;;;;14.63;5.93;;;;;;;;;;4872169;29;20148;-84
2021/10/21 00:48:20;;;;;;;20.38;7.20;;;;;;;;;;4886557;29;20063;-84
2021/10/21 00:50:48;;;;;;;17.60;7.90;;;;;;;;;;4888258;29;20675;-84
2021/10/21 00:53:17;;;;;;;17.73;7.22;;;;;;;;;;4886668;28;20036;-84
2021/10/21 00:55:44;;;;;;;22.05;9.93;;;;;;;;;;4871793;29;20184;-84
2021/10/21 00:58:12;;;;;;;29.75;11.50;;;;;;;;;;4891754;28;20048;-83
2021/10/21 01:00:39;;;;;;;15.57;5.90;;;;;;;;;;4886421;29;20043;-84
2021/10/21 01:03:05;;;;;;;13.63;5.22;;;;;;;;;;4886408;29;20037;-83
2021/10/21 01:05:31;;;;;;;13.70;4.60;;;;;;;;;;4869273;29;20111;-83
2021/10/21 01:07:59;;;;;;;12.65;4.75;;;;;;;;;;4887372;29;20037;-83
2021/10/21 01:10:27;;;;;;;11.50;4.40;;;;;;;;;;4891174;29;20463;-84
2021/10/21 01:12:53;;;;;;;11.90;4.85;;;;;;;;;;4886271;28;20044;-83
2021/10/21 01:15:28;;;;;;;12.85;5.45;;;;;;;;;;4887193;29;20053;-83
2021/10/21 01:17:55;;;;;;;13.63;5.00;;;;;;;;;;4883787;28;20124;-83
2021/10/21 01:20:22;;;;;;;13.93;4.72;;;;;;;;;;4895055;29;20040;-85
2021/10/21 01:22:49;;;;;;;12.57;4.75;;;;;;;;;;4885567;29;20054;-83
2021/10/21 01:25:17;;;;;;;19.05;6.50;;;;;;;;;;4885599;28;20132;-84
2021/10/21 01:27:43;;;;;;;25.55;9.88;;;;;;;;;;4897402;29;20051;-84
2021/10/21 01:30:19;;;;;;;28.90;11.60;;;;;;;;;;4877951;29;20032;-84
2021/10/21 01:32:46;;;;;;;22.73;10.40;;;;;;;;;;4893401;28;20111;-83
2021/10/21 01:35:13;;;;;;;22.70;10.20;;;;;;;;;;4899432;29;20036;-83
2021/10/21 01:37:41;;;;;;;17.60;8.05;;;;;;;;;;4887117;28;20029;-83
2021/10/21 01:40:12;;;;;;;18.45;7.82;;;;;;;;;;4907661;29;20513;-83
2021/10/21 01:42:39;;;;;;;16.92;6.10;;;;;;;;;;4884683;29;20040;-84
2021/10/21 01:45:29;;;;;;;18.85;7.80;;;;;;;;;;4888100;29;20138;-84
2021/10/21 01:47:56;;;;;;;15.23;6.68;;;;;;;;;;4883128;29;20703;-84
2021/10/21 01:50:23;;;;;;;17.70;7.03;;;;;;;;;;4877703;29;20028;-84
2021/10/21 01:52:50;;;;;;;13.57;5.72;;;;;;;;;;4873541;29;20073;-84
2021/10/21 01:55:17;;;;;;;15.98;6.03;;;;;;;;;;4881777;29;20061;-84
2021/10/21 01:57:44;;;;;;;12.60;5.40;;;;;;;;;;4867294;29;20244;-83
2021/10/21 02:00:12;;;;;;;12.60;5.18;;;;;;;;;;4893331;29;20044;-82
2021/10/21 02:02:38;;;;;;;12.75;5.60;;;;;;;;;;4877277;29;20100;-81
2021/10/21 02:05:05;;;;;;;11.73;4.90;;;;;;;;;;4887367;29;20121;-83
2021/10/21 02:07:33;;;;;;;13.20;4.05;;;;;;;;;;4896213;29;20033;-84
2021/10/21 02:09:59;;;;;;;10.32;4.03;;;;;;;;;;4890660;29;20040;-84
2021/10/21 02:12:26;;;;;;;11.70;4.05;;;;;;;;;;4875897;29;20101;-84
2021/10/21 02:14:53;;;;;;;12.32;3.78;;;;;;;;;;4875535;29;20037;-84
2021/10/21 02:17:22;;;;;;;12.10;4.38;;;;;;;;;;4871355;29;20783;-83
2021/10/21 02:19:50;;;;;;;10.40;3.88;;;;;;;;;;4876102;29;20048;-84
2021/10/21 02:22:17;;;;;;;11.13;3.92;;;;;;;;;;4873015;29;20041;-84
2021/10/21 02:24:43;;;;;;;10.52;4.30;;;;;;;;;;4870759;29;20140;-83
2021/10/21 02:27:09;;;;;;;12.98;4.28;;;;;;;;;;4893666;29;20048;-84
2021/10/21 02:29:37;;;;;;;11.73;4.07;;;;;;;;;;4871522;29;20033;-84
2021/10/21 02:32:04;;;;;;;12.18;4.15;;;;;;;;;;4879697;29;20059;-84
2021/10/21 02:34:31;;;;;;;10.98;4.68;;;;;;;;;;4895333;28;20051;-85
2021/10/21 02:36:56;;;;;;;;;;;;;;;;;;4902147;29;20045;-85
2021/10/21 02:39:23;;;;;;;10.60;4.22;;;;;;;;;;4908846;29;19969;-85
2021/10/21 02:41:49;;;;;;;11.27;4.70;;;;;;;;;;4913670;29;20044;-83
2021/10/21 02:44:15;;;;;;;;;;;;;;;;;;4915759;28;20182;-85
2021/10/21 02:46:41;;;;;;;13.77;5.07;;;;;;;;;;4910980;29;19930;-83
2021/10/21 02:49:07;;;;;;;;;;;;;;;;;;4913041;28;20032;-83
2021/10/21 02:51:35;;;;;;;10.68;4.22;;;;;;;;;;4911506;29;19919;-84
2021/10/21 02:54:02;;;;;;;10.07;4.00;;;;;;;;;;4907259;28;20043;-84
2021/10/21 02:56:28;;;;;;;9.98;4.13;;;;;;;;;;4913667;29;20040;-85
2021/10/21 02:58:55;;;;;;;11.68;4.82;;;;;;;;;;4911431;28;20023;-85
2021/10/21 03:01:22;;;;;;;15.32;5.07;;;;;;;;;;4911595;29;20047;-85
2021/10/21 03:03:48;;;;;;;11.57;4.93;;;;;;;;;;4891575;28;20115;-85
2021/10/21 03:06:14;;;;;;;;;;;;;;;;;;4907916;29;20040;-86
2021/10/21 03:08:40;;;;;;;11.25;4.53;;;;;;;;;;4904279;28;19915;-83
2021/10/21 03:11:07;;;;;;;14.57;5.75;;;;;;;;;;4910334;29;20390;-81
2021/10/21 03:13:33;;;;;;;12.68;6.00;;;;;;;;;;4909923;28;20836;-83
2021/10/21 03:16:00;;;;;;;14.52;6.15;;;;;;;;;;4923579;28;20039;-83
2021/10/21 03:18:27;;;;;;;14.00;5.38;;;;;;;;;;4909632;28;20051;-83
2021/10/21 03:20:54;;;;;;;14.48;5.85;;;;;;;;;;4907939;28;20039;-84
2021/10/21 03:23:24;;;;;;;11.23;5.35;;;;;;;;;;4913226;28;20068;-84
2021/10/21 03:25:50;;;;;;;12.73;5.13;;;;;;;;;;4919111;28;20114;-82
2021/10/21 03:28:17;;;;;;;14.55;6.38;;;;;;;;;;4923196;28;20052;-83
2021/10/21 03:30:43;;;;;;;;;;;;;;;;;;4912683;28;20046;-83
2021/10/21 03:33:09;;;;;;;13.63;6.20;;;;;;;;;;4918459;28;19923;-83
2021/10/21 03:35:36;;;;;;;16.17;5.72;;;;;;;;;;4913864;29;20043;-83
2021/10/21 03:38:02;;;;;;;14.25;6.05;;;;;;;;;;4908009;28;20087;-83
2021/10/21 03:40:29;;;;;;;14.15;6.25;;;;;;;;;;4908932;29;20052;-83
2021/10/21 03:42:56;;;;;;;12.27;5.53;;;;;;;;;;4910268;28;20034;-82
2021/10/21 03:45:23;;;;;;;15.95;6.57;;;;;;;;;;4918050;29;20043;-84
2021/10/21 03:47:49;;;;;;;14.70;6.20;;;;;;;;;;4911087;28;20126;-83
2021/10/21 03:50:17;;;;;;;12.55;6.30;;;;;;;;;;4903945;29;20040;-83
2021/10/21 03:52:44;;;;;;;16.02;6.82;;;;;;;;;;4897152;28;20055;-84
2021/10/21 03:55:11;;;;;;;18.00;7.32;;;;;;;;;;4914939;29;20077;-83
2021/10/21 03:57:37;;;;;;;14.02;7.43;;;;;;;;;;4908165;28;20039;-84
2021/10/21 04:00:07;;;;;;;18.15;7.88;;;;;;;;;;4919753;29;20084;-84
2021/10/21 04:02:37;;;;;;;17.17;7.60;;;;;;;;;;4887026;29;20046;-84
2021/10/21 04:05:04;;;;;;;16.77;7.38;;;;;;;;;;4915617;29;20030;-82
2021/10/21 04:07:30;;;;;;;16.48;6.70;;;;;;;;;;4916680;28;20063;-83
2021/10/21 04:09:57;;;;;;;14.23;6.53;;;;;;;;;;4911388;28;20036;-83
2021/10/21 04:12:24;;;;;;;13.82;6.63;;;;;;;;;;4909429;29;20028;-84
2021/10/21 04:14:50;;;;;;;12.38;6.40;;;;;;;;;;4903241;28;20380;-84
2021/10/21 04:17:19;;;;;;;14.88;6.25;;;;;;;;;;4905394;29;20062;-84
2021/10/21 04:19:46;;;;;;;13.57;6.65;;;;;;;;;;4913721;28;20039;-84
2021/10/21 04:22:12;;;;;;;14.35;6.40;;;;;;;;;;4915045;29;20036;-83
2021/10/21 04:24:38;;;;;;;;;;;;;;;;;;4908244;28;20043;-84
2021/10/21 04:27:05;;;;;;;13.88;6.53;;;;;;;;;;4907601;29;19929;-83
2021/10/21 04:29:31;;;;;;;15.52;6.50;;;;;;;;;;4908606;28;20094;-84
2021/10/21 04:31:59;;;;;;;12.57;6.05;;;;;;;;;;4908761;29;20059;-84
2021/10/21 04:34:26;;;;;;;14.82;7.03;;;;;;;;;;4915738;28;20043;-83
2021/10/21 04:36:52;;;;;;;14.00;6.45;;;;;;;;;;4922053;28;20027;-84
2021/10/21 04:39:18;;;;;;;15.57;7.13;;;;;;;;;;4914147;28;20036;-84
2021/10/21 04:41:44;;;;;;;13.55;6.68;;;;;;;;;;4911188;29;20123;-82
2021/10/21 04:44:10;;;;;;;15.77;6.57;;;;;;;;;;4917317;29;20047;-83
2021/10/21 04:46:36;;;;;;;;;;;;;;;;;;4915704;29;20083;-83
2021/10/21 04:49:03;;;;;;;14.55;6.45;;;;;;;;;;4920222;28;19919;-84
2021/10/21 04:51:30;;;;;;;12.32;5.72;;;;;;;;;;4927639;29;20043;-83
2021/10/21 04:53:56;;;;;;;14.60;6.13;;;;;;;;;;4924174;28;20735;-83
2021/10/21 04:56:22;;;;;;;14.00;6.35;;;;;;;;;;4927214;29;20058;-84
2021/10/21 04:58:50;;;;;;;16.63;5.95;;;;;;;;;;4922206;28;20039;-84
2021/10/21 05:01:17;;;;;;;17.75;7.20;;;;;;;;;;4918985;29;20083;-84
2021/10/21 05:03:43;;;;;;;12.70;5.50;;;;;;;;;;4897147;29;20042;-84
2021/10/21 05:06:09;;;;;;;15.65;7.03;;;;;;;;;;4925038;29;20086;-85
2021/10/21 05:08:36;;;;;;;16.27;6.63;;;;;;;;;;4921630;28;20027;-84
2021/10/21 05:11:06;;;;;;;12.65;5.70;;;;;;;;;;4914610;29;20020;-84
2021/10/21 05:13:33;;;;;;;15.63;7.47;;;;;;;;;;4912425;29;20047;-85
2021/10/21 05:16:01;;;;;;;17.08;7.95;;;;;;;;;;4924827;29;20067;-83
2021/10/21 05:18:28;;;;;;;16.25;7.78;;;;;;;;;;4926666;28;20044;-84
2021/10/21 05:20:54;;;;;;;18.25;7.38;;;;;;;;;;4936720;29;20088;-85
2021/10/21 05:23:21;;;;;;;17.45;8.05;;;;;;;;;;4928746;28;20027;-84
2021/10/21 05:25:48;;;;;;;18.30;6.82;;;;;;;;;;4922513;28;20146;-85
2021/10/21 05:28:15;;;;;;;14.68;7.20;;;;;;;;;;4924009;29;20052;-82
2021/10/21 05:30:41;;;;;;;;;;;;;;;;;;4909106;28;20047;-84
2021/10/21 05:33:07;;;;;;;14.38;6.53;;;;;;;;;;4907738;29;19981;-84
2021/10/21 05:35:33;;;;;;;14.32;6.40;;;;;;;;;;4910240;28;20027;-84
2021/10/21 05:38:00;;;;;;;;;;;;;;;;;;4923207;29;20055;-85
2021/10/21 05:40:27;;;;;;;17.55;7.03;;;;;;;;;;4922885;28;19923;-85
2021/10/21 05:42:53;;;;;;;17.30;7.72;;;;;;;;;;4918323;29;20028;-85
2021/10/21 05:45:20;;;;;;;;;;;;;;;;;;4920061;28;20058;-84
2021/10/21 05:47:46;;;;;;;16.67;7.38;;;;;;;;;;4900672;29;19930;-83
2021/10/21 05:50:14;;;;;;;18.08;6.40;;;;;;;;;;4912542;28;20086;-83
2021/10/21 05:52:41;;;;;;;15.85;8.15;;;;;;;;;;4917920;28;20063;-84
2021/10/21 05:55:07;;;;;;;;;;;;;;;;;;4907497;28;20050;-84
2021/10/21 05:57:33;;;;;;;13.85;6.13;;;;;;;;;;4910724;29;20017;-84
2021/10/21 06:00:00;;;;;;;16.65;7.18;;;;;;;;;;4913465;28;20068;-83
2021/10/21 06:02:27;;;;;;;17.30;7.32;;;;;;;;;;4916708;29;20036;-85
2021/10/21 06:04:54;;;;;;;16.50;7.80;;;;;;;;;;4922049;28;20047;-83
2021/10/21 06:07:20;;;;;;;17.52;7.65;;;;;;;;;;4913612;29;20040;-85
2021/10/21 06:09:48;;;;;;;14.73;7.25;;;;;;;;;;4907730;28;20043;-84
2021/10/21 06:12:14;;;;;;;16.13;8.35;;;;;;;;;;4912566;29;20032;-84
2021/10/21 06:14:41;;;;;;;18.80;8.52;;;;;;;;;;4911318;28;20134;-84
2021/10/21 06:17:08;;;;;;;19.27;8.85;;;;;;;;;;4925003;29;20027;-83
2021/10/21 06:19:34;;;;;;;19.10;8.85;;;;;;;;;;4911616;28;20067;-84
2021/10/21 06:22:07;;;;;;;17.10;8.63;;;;;;;;;;4922189;28;20069;-83
2021/10/21 06:24:34;;;;;;;17.65;8.05;;;;;;;;;;4915254;29;20076;-83
2021/10/21 06:27:01;;;;;;;17.40;8.20;;;;;;;;;;4911996;29;20135;-83
2021/10/21 06:29:28;;;;;;;14.38;7.65;;;;;;;;;;4910365;29;20506;-83
2021/10/21 06:31:55;;;;;;;18.40;7.93;;;;;;;;;;4913847;28;20023;-83
2021/10/21 06:34:21;;;;;;;14.63;6.85;;;;;;;;;;4917930;28;20043;-85
2021/10/21 06:36:47;;;;;;;20.48;6.75;;;;;;;;;;4919968;28;22581;-85
2021/10/21 06:39:14;;;;;;;17.45;7.05;;;;;;;;;;4910417;28;20506;-83
2021/10/21 06:41:40;;;;;;;14.18;6.00;;;;;;;;;;4907053;29;20052;-83
2021/10/21 06:44:07;;;;;;;30.20;7.35;;;;;;;;;;4913652;29;20865;-81
2021/10/21 06:46:33;;;;;;;22.13;7.78;;;;;;;;;;4912019;29;20385;-82
2021/10/21 06:49:00;;;;;;;18.20;6.70;;;;;;;;;;4917282;28;20042;-82
2021/10/21 06:51:28;;;;;;;18.52;7.13;;;;;;;;;;4916370;29;20040;-82
2021/10/21 06:53:55;;;;;;;18.77;7.60;;;;;;;;;;4911403;28;20031;-83
2021/10/21 06:56:21;;;;;;;24.05;7.50;;;;;;;;;;4911858;29;20106;-87
2021/10/21 06:58:47;;;;;;;26.88;7.97;;;;;;;;;;4912035;28;20051;-85
2021/10/21 07:01:14;;;;;;;;;;;;;;;;;;4918557;29;20032;-85
2021/10/21 07:03:41;;;;;;;17.63;8.32;;;;;;;;;;4913041;29;19938;-84
2021/10/21 07:06:07;;;;;;;24.30;10.05;;;;;;;;;;4916873;29;20083;-84
2021/10/21 07:08:34;;;;;;;22.30;11.05;;;;;;;;;;4910595;28;20031;-84
2021/10/21 07:11:02;;;;;;;19.58;9.50;;;;;;;;;;4919729;29;20031;-84
2021/10/21 07:13:28;;;;;;;25.40;10.75;;;;;;;;;;4922477;29;20456;-84
2021/10/21 07:15:54;;;;;;;18.20;10.43;;;;;;;;;;4921843;28;20089;-84
2021/10/21 07:18:20;;;;;;;;;;;;;;;;;;4922046;29;20138;-84
2021/10/21 07:20:47;;;;;;;26.70;9.48;;;;;;;;;;4911380;29;20809;-85
2021/10/21 07:23:13;;;;;;;19.42;9.70;;;;;;;;;;4919363;29;20034;-85
2021/10/21 07:25:40;;;;;;;;;;;;;;;;;;4911173;29;20036;-85
2021/10/21 07:28:06;;;;;;;22.63;10.68;;;;;;;;;;4909280;29;20018;-84
2021/10/21 07:30:33;;;;;;;;;;;;;;;;;;4913710;28;20052;-85
2021/10/21 07:33:00;;;;;;;20.55;9.32;;;;;;;;;;4913633;29;19918;-85
2021/10/21 07:35:31;;;;;;;21.90;10.57;;;;;;;;;;4913783;28;20028;-85
2021/10/21 07:37:57;;;;;;;23.50;9.77;;;;;;;;;;4905462;29;20736;-84
2021/10/21 07:40:24;;;;;;;15.80;8.50;;;;;;;;;;4916586;28;20046;-84
2021/10/21 07:42:50;;;;;;;;;;;;;;;;;;4914555;29;20049;-85
2021/10/21 07:45:19;;;;;;;18.48;9.40;;;;;;;;;;4916834;28;20333;-85
2021/10/21 07:47:46;;;;;;;20.77;10.70;;;;;;;;;;4910415;28;20047;-84
2021/10/21 07:50:14;;;;;;;20.48;10.63;;;;;;;;;;4913364;28;20156;-85
2021/10/21 07:52:45;;;;;;;22.80;10.30;;;;;;;;;;4915301;29;20035;-84
2021/10/21 07:55:13;;;;;;;19.63;9.38;;;;;;;;;;4922773;28;20068;-84
2021/10/21 07:57:40;;;;;;;22.63;10.15;;;;;;;;;;4921842;28;20039;-84
2021/10/21 08:00:11;;;;;;;18.88;9.60;;;;;;;;;;4912696;28;20219;-82
2021/10/21 08:02:43;;;;;;;21.95;8.98;;;;;;;;;;4897029;29;20035;-84
2021/10/21 08:05:10;;;;;;;21.10;8.90;;;;;;;;;;4921323;28;20027;-83
2021/10/21 08:07:46;;;;;;;18.10;9.40;;;;;;;;;;4916670;28;20048;-85
2021/10/21 08:10:15;;;;;;;17.73;9.45;;;;;;;;;;4903256;29;20078;-86
2021/10/21 08:12:42;;;;;;;16.38;7.90;;;;;;;;;;4903504;29;20079;-83
2021/10/21 08:15:10;;;;;;;15.73;7.80;;;;;;;;;;4896652;29;20071;-84
2021/10/21 08:17:37;;;;;;;13.00;7.00;;;;;;;;;;4908537;29;20038;-85
2021/10/21 08:20:04;;;;;;;19.40;7.93;;;;;;;;;;4910812;29;20055;-85
2021/10/21 08:22:32;;;;;;;16.45;7.78;;;;;;;;;;4912655;29;20043;-85
2021/10/21 08:24:59;;;;;;;17.30;8.75;;;;;;;;;;4910807;28;20507;-85
2021/10/21 08:27:25;;;;;;;15.55;8.75;;;;;;;;;;4896525;29;20044;-85
2021/10/21 08:29:53;;;;;;;16.38;8.38;;;;;;;;;;4920705;28;20059;-85
2021/10/21 08:32:20;;;;;;;25.63;11.73;;;;;;;;;;4919972;29;20905;-85
2021/10/21 08:34:46;;;;;;;19.58;8.70;;;;;;;;;;4919346;28;20047;-85
2021/10/21 08:37:13;;;;;;;19.98;11.07;;;;;;;;;;4912611;29;23529;-85
2021/10/21 08:39:41;;;;;;;23.60;11.48;;;;;;;;;;4909098;28;20035;-84
2021/10/21 08:42:09;;;;;;;24.42;11.25;;;;;;;;;;4915354;29;20039;-87
2021/10/21 08:44:41;;;;;;;20.40;11.68;;;;;;;;;;4925765;28;20063;-85
2021/10/21 08:47:09;;;;;;;21.13;9.85;;;;;;;;;;4925872;29;20090;-86
2021/10/21 08:49:37;;;;;;;17.58;8.23;;;;;;;;;;4918724;28;20059;-86
2021/10/21 08:52:04;;;;;;;15.82;6.28;;;;;;;;;;4896110;29;20035;-86
2021/10/21 08:54:32;;;;;;;11.63;5.80;;;;;;;;;;4914723;28;20150;-85
2021/10/21 08:56:59;;;;;;;17.40;5.97;;;;;;;;;;4914175;28;20151;-86
2021/10/21 08:59:27;;;;;;;15.73;5.45;;;;;;;;;;4903143;29;20031;-85
2021/10/21 09:02:17;;;;;;;14.27;4.97;;;;;;;;;;4897952;29;20024;-86
2021/10/21 09:10:15;;;;;;;14.10;4.50;;;;;;;;;;4911250;28;20102;-87
2021/10/21 09:12:45;;;;;;;13.45;4.25;;;;;;;;;;4915820;29;20036;-85
2021/10/21 09:15:17;;;;;;;11.90;4.65;;;;;;;;;;4916509;29;20126;-86
2021/10/21 09:17:45;;;;;;;12.35;4.22;;;;;;;;;;4907363;29;20058;-85
2021/10/21 09:20:35;;;;;;;12.82;5.70;;;;;;;;;;4915081;28;20035;-86
2021/10/21 09:23:06;;;;;;;21.25;8.93;;;;;;;;;;4913834;29;20055;-86
2021/10/21 09:25:34;;;;;;;12.68;5.28;;;;;;;;;;4906171;28;20106;-86
2021/10/21 09:28:16;;;;;;;11.23;4.55;;;;;;;;;;4913672;29;20653;-84
2021/10/21 09:30:50;;;;;;;12.55;4.40;;;;;;;;;;4909928;28;20110;-83
2021/10/21 09:33:17;;;;;;;11.27;3.97;;;;;;;;;;4895209;29;20063;-83
2021/10/21 09:36:00;;;;;;;11.57;4.43;;;;;;;;;;4907982;29;20111;-86
2021/10/21 09:38:28;;;;;;;13.20;3.75;;;;;;;;;;4907945;29;20043;-82
2021/10/21 09:41:05;;;;;;;9.82;3.42;;;;;;;;;;4875110;29;20044;-85
2021/10/21 09:43:32;;;;;;;11.75;4.05;;;;;;;;;;4907958;29;20051;-86
2021/10/21 09:45:59;;;;;;;10.85;3.90;;;;;;;;;;4890988;28;20492;-86
2021/10/21 09:48:28;;;;;;;12.70;4.40;;;;;;;;;;4909390;29;20159;-85
2021/10/21 09:50:55;;;;;;;14.90;4.70;;;;;;;;;;4896327;28;20044;-84
2021/10/21 09:53:31;;;;;;;11.88;4.35;;;;;;;;;;4901361;29;20059;-84
2021/10/21 09:56:01;;;;;;;13.38;4.32;;;;;;;;;;4896572;29;20052;-84
2021/10/21 09:58:29;;;;;;;12.30;4.40;;;;;;;;;;4913893;29;20091;-84
2021/10/21 10:01:13;;;;;;;12.07;4.93;;;;;;;;;;4905743;29;20036;-85
2021/10/21 10:03:42;;;;;;;9.75;4.13;;;;;;;;;;4910439;28;20036;-84
2021/10/21 10:06:09;;;;;;;12.43;4.50;;;;;;;;;;4907065;29;20139;-84
2021/10/21 10:08:37;;;;;;;11.77;4.30;;;;;;;;;;4885654;28;20028;-84
2021/10/21 10:11:11;;;;;;;9.75;3.70;;;;;;;;;;4908170;29;20036;-83
2021/10/21 10:13:46;;;;;;;11.35;3.65;;;;;;;;;;4902638;29;20044;-85
2021/10/21 10:16:15;;;;;;;10.93;4.85;;;;;;;;;;4894323;28;20042;-85
2021/10/21 10:18:51;;;;;;;12.60;5.53;;;;;;;;;;4892333;28;20061;-84
2021/10/21 10:21:23;;;;;;;12.85;3.65;;;;;;;;;;4905653;28;20036;-84
2021/10/21 10:23:51;;;;;;;9.27;2.92;;;;;;;;;;4887988;28;20139;-85
2021/10/21 10:26:37;;;;;;;10.77;3.15;;;;;;;;;;4889716;29;20140;-84
2021/10/21 10:29:04;;;;;;;9.65;2.97;;;;;;;;;;4905431;29;20122;-84
2021/10/21 10:31:44;;;;;;;11.32;2.75;;;;;;;;;;4893229;29;20051;-84
2021/10/21 10:34:30;;;;;;;9.05;2.78;;;;;;;;;;4907813;29;20033;-84
2021/10/21 10:36:57;;;;;;;9.50;2.63;;;;;;;;;;4907365;28;20139;-84
2021/10/21 10:39:58;;;;;;;9.57;2.67;;;;;;;;;;4905677;28;20044;-85
2021/10/21 10:42:34;;;;;;;8.63;2.33;;;;;;;;;;4831613;29;20096;-84
2021/10/21 10:45:11;;;;;;;10.02;2.70;;;;;;;;;;4825062;29;20157;-84
2021/10/21 10:47:37;;;;;;;9.45;2.92;;;;;;;;;;4819861;29;20918;-85
2021/10/21 10:50:03;;;;;;;8.55;2.42;;;;;;;;;;4837000;29;20032;-83
2021/10/21 10:52:45;;;;;;;8.85;2.67;;;;;;;;;;4837457;29;20093;-84
2021/10/21 10:55:20;;;;;;;8.93;2.75;;;;;;;;;;4833625;29;20193;-87
2021/10/21 10:57:48;;;;;;;8.25;2.50;;;;;;;;;;4821699;29;20034;-83
2021/10/21 11:00:33;;;;;;;9.65;2.92;;;;;;;;;;4833672;29;20197;-85
2021/10/21 11:02:59;;;;;;;9.13;2.83;;;;;;;;;;4826948;29;20129;-84
2021/10/21 11:05:48;;;;;;;7.45;2.40;;;;;;;;;;4839100;29;20470;-85
2021/10/21 11:08:15;;;;;;;8.18;2.40;;;;;;;;;;4844435;29;20060;-84
2021/10/21 11:10:43;;;;;;;8.05;2.33;;;;;;;;;;4822212;29;20045;-87
2021/10/21 11:13:33;;;;;;;9.52;3.08;;;;;;;;;;4846407;29;20220;-88
2021/10/21 11:15:59;;;;;;;10.32;3.15;;;;;;;;;;4840693;29;20068;-86
2021/10/21 11:18:34;;;;;;;8.25;2.30;;;;;;;;;;4882860;29;20036;-86
2021/10/21 11:21:02;;;;;;;10.23;3.50;;;;;;;;;;4897975;28;20131;-86
2021/10/21 11:23:29;;;;;;;9.95;2.38;;;;;;;;;;4891353;28;20042;-86
2021/10/21 11:26:01;;;;;;;6.55;2.22;;;;;;;;;;4899950;29;20116;-86
2021/10/21 11:28:33;;;;;;;12.88;7.10;;;;;;;;;;4905965;29;20041;-85
2021/10/21 11:31:01;;;;;;;13.18;4.65;;;;;;;;;;4925655;29;20108;-86
2021/10/21 11:33:28;;;;;;;13.68;6.13;;;;;;;;;;4895614;28;20040;-83
2021/10/21 11:35:59;;;;;;;10.30;3.13;;;;;;;;;;4887905;28;20036;-85
2021/10/21 11:38:29;;;;;;;10.63;2.28;;;;;;;;;;4900997;28;20107;-84
2021/10/21 11:41:01;;;;;;;8.75;2.45;;;;;;;;;;4905057;29;20076;-85
2021/10/21 11:43:38;;;;;;;9.07;2.50;;;;;;;;;;4871000;29;20045;-84
2021/10/21 11:46:07;;;;;;;9.23;2.67;;;;;;;;;;4863604;29;20048;-83
2021/10/21 11:48:35;;;;;;;7.68;2.25;;;;;;;;;;4863645;29;20578;-84
2021/10/21 11:51:03;;;;;;;7.10;2.63;;;;;;;;;;4863881;29;20045;-84
2021/10/21 11:53:32;;;;;;;8.52;2.60;;;;;;;;;;4879303;29;20036;-84
2021/10/21 11:56:00;;;;;;;8.68;2.47;;;;;;;;;;4881876;29;20036;-84
2021/10/21 11:58:30;;;;;;;8.80;2.53;;;;;;;;;;4874362;29;20544;-86
2021/10/21 12:01:02;;;;;;;7.60;2.15;;;;;;;;;;4871406;29;20053;-85
2021/10/21 12:03:42;;;;;;;7.45;2.10;;;;;;;;;;4864555;29;20044;-83
2021/10/21 12:06:13;;;;;;;8.05;1.98;;;;;;;;;;4871128;29;20044;-84
2021/10/21 12:08:48;;;;;;;6.53;2.10;;;;;;;;;;4889017;29;20041;-84
2021/10/21 12:11:18;;;;;;;9.30;2.20;;;;;;;;;;4893878;29;20276;-85
2021/10/21 12:13:46;;;;;;;6.63;2.05;;;;;;;;;;4859226;29;20047;-85
2021/10/21 12:16:22;;;;;;;8.90;2.17;;;;;;;;;;4886246;29;20067;-85
2021/10/21 12:18:49;;;;;;;9.82;2.35;;;;;;;;;;4863601;29;20039;-84
2021/10/21 12:21:17;;;;;;;8.55;2.60;;;;;;;;;;4868516;29;20040;-84
2021/10/21 12:23:48;;;;;;;9.82;2.50;;;;;;;;;;4865856;29;20095;-84
2021/10/21 12:26:29;;;;;;;7.43;2.33;;;;;;;;;;4869350;29;20067;-83
2021/10/21 12:29:03;;;;;;;9.40;1.98;;;;;;;;;;4871684;29;20143;-85
2021/10/21 12:31:36;;;;;;;7.10;2.00;;;;;;;;;;4852826;29;20487;-84
2021/10/21 12:34:09;;;;;;;8.10;2.17;;;;;;;;;;4869337;29;20796;-84
2021/10/21 12:36:43;;;;;;;6.32;1.70;;;;;;;;;;4865867;29;20087;-84
2021/10/21 12:39:10;;;;;;;8.38;2.08;;;;;;;;;;4868148;29;20492;-84
2021/10/21 12:41:56;;;;;;;9.50;2.38;;;;;;;;;;4889689;28;20121;-84
2021/10/21 12:44:31;;;;;;;6.93;1.90;;;;;;;;;;4913115;28;20821;-84
2021/10/21 12:47:28;;;;;;;7.20;2.28;;;;;;;;;;4907133;28;20042;-83
2021/10/21 12:50:03;;;;;;;9.10;2.22;;;;;;;;;;4912109;29;20047;-83
2021/10/21 12:52:39;;;;;;;8.35;1.95;;;;;;;;;;4905750;28;20032;-84
2021/10/21 12:55:19;;;;;;;8.43;2.47;;;;;;;;;;4910054;29;20035;-86
2021/10/21 12:57:49;;;;;;;7.47;2.20;;;;;;;;;;4909005;28;20032;-84
2021/10/21 13:00:29;;;;;;;14.65;2.00;;;;;;;;;;4904903;29;20078;-85
2021/10/21 13:03:07;;;;;;;6.43;1.70;;;;;;;;;;4906596;28;20119;-86
2021/10/21 13:05:34;;;;;;;6.60;1.70;;;;;;;;;;4910803;29;20499;-87
2021/10/21 13:08:02;;;;;;;8.30;1.80;;;;;;;;;;4915360;28;20036;-87
2021/10/21 13:10:30;;;;;;;6.43;1.80;;;;;;;;;;4903149;29;20106;-88
2021/10/21 13:12:57;;;;;;;6.88;1.70;;;;;;;;;;4897955;28;20058;-87
2021/10/21 13:15:24;;;;;;;10.38;2.20;;;;;;;;;;4910869;29;20072;-86
2021/10/21 13:17:51;;;;;;;13.35;3.83;;;;;;;;;;4908949;29;20040;-87
2021/10/21 13:20:21;;;;;;;9.35;3.25;;;;;;;;;;4914472;29;20487;-88
2021/10/21 13:22:51;;;;;;;11.65;2.97;;;;;;;;;;4911984;28;20102;-85
2021/10/21 13:25:20;;;;;;;10.70;2.08;;;;;;;;;;4918754;29;20038;-88
2021/10/21 13:27:47;;;;;;;12.25;2.10;;;;;;;;;;4906840;29;20055;-87
2021/10/21 13:30:15;;;;;;;10.27;2.15;;;;;;;;;;4905390;29;20572;-86
2021/10/21 13:32:43;;;;;;;8.60;2.03;;;;;;;;;;4912499;29;20121;-88
2021/10/21 13:35:10;;;;;;;9.15;2.40;;;;;;;;;;4905949;29;20031;-88
2021/10/21 13:37:37;;;;;;;9.30;2.20;;;;;;;;;;4910163;28;20048;-87
2021/10/21 13:40:05;;;;;;;8.20;2.30;;;;;;;;;;4915446;29;20494;-87
2021/10/21 13:42:33;;;;;;;11.55;2.50;;;;;;;;;;4911829;28;20071;-87
2021/10/21 13:44:59;;;;;;;7.60;1.83;;;;;;;;;;4915287;29;20051;-88
2021/10/21 13:47:26;;;;;;;8.68;2.05;;;;;;;;;;4909509;28;20028;-87
2021/10/21 13:49:52;;;;;;;9.05;2.00;;;;;;;;;;4915938;29;20036;-86
2021/10/21 13:52:19;;;;;;;7.65;2.25;;;;;;;;;;4909798;29;20071;-87
2021/10/21 13:54:46;;;;;;;8.93;2.30;;;;;;;;;;4904616;29;20064;-87
2021/10/21 13:57:15;;;;;;;8.55;1.80;;;;;;;;;;4914611;28;20485;-86
2021/10/21 13:59:43;;;;;;;7.82;1.85;;;;;;;;;;4897442;28;20240;-87
2021/10/21 14:02:12;;;;;;;8.63;2.00;;;;;;;;;;4912239;28;20056;-87
2021/10/21 14:04:39;;;;;;;7.82;1.95;;;;;;;;;;4911533;29;20159;-86
2021/10/21 14:07:08;;;;;;;8.95;1.95;;;;;;;;;;4915340;28;20496;-88
2021/10/21 14:09:34;;;;;;;10.07;2.28;;;;;;;;;;4907233;29;20067;-87
2021/10/21 14:12:01;;;;;;;8.57;1.80;;;;;;;;;;4909349;29;20036;-87
2021/10/21 14:14:28;;;;;;;9.20;2.20;;;;;;;;;;4904981;29;20030;-87
2021/10/21 14:16:56;;;;;;;9.88;2.00;;;;;;;;;;4913607;28;20115;-87
2021/10/21 14:19:23;;;;;;;7.78;1.85;;;;;;;;;;4908251;28;20051;-89
2021/10/21 14:21:50;;;;;;;10.48;2.30;;;;;;;;;;4908297;28;20639;-87
2021/10/21 14:24:18;;;;;;;7.60;1.90;;;;;;;;;;4910177;29;20039;-87
2021/10/21 14:26:46;;;;;;;7.70;1.95;;;;;;;;;;4910616;28;20059;-88
2021/10/21 14:29:14;;;;;;;7.80;1.92;;;;;;;;;;4920256;29;20486;-87
2021/10/21 14:31:41;;;;;;;12.57;1.90;;;;;;;;;;4905138;28;20024;-87
2021/10/21 14:34:11;;;;;;;6.63;1.70;;;;;;;;;;4915381;29;20037;-86
2021/10/21 14:36:40;;;;;;;8.18;2.00;;;;;;;;;;4915766;28;20031;-86
2021/10/21 14:39:08;;;;;;;7.93;2.30;;;;;;;;;;4887265;29;20186;-87
2021/10/21 14:41:35;;;;;;;8.38;2.13;;;;;;;;;;4897340;28;20056;-87
2021/10/21 14:44:01;;;;;;;8.43;1.70;;;;;;;;;;4916791;29;20032;-87
2021/10/21 14:46:31;;;;;;;7.65;1.88;;;;;;;;;;4916445;28;20416;-87
2021/10/21 14:49:02;;;;;;;7.90;1.83;;;;;;;;;;4914836;29;20047;-85
2021/10/21 14:51:28;;;;;;;8.30;1.98;;;;;;;;;;4916299;28;20339;-85
2021/10/21 14:53:56;;;;;;;11.18;1.95;;;;;;;;;;4923726;29;20059;-86